Time;durP1;ratioP1;P1;durP2;ratioP2;P2;SDS_P1;SDS_P2;PMS_P1;PMS_P2;Temp;Humidity;BMP_temperature;BMP_pressure;BME280_temperature;BME280_humidity;BME280_pressure;Samples;Min_cycle;Max_cycle;Signal;HPM_P1;HPM_P2
2021/12/29 00:01:09;;;;;;;;;;;9.30;99.90;;;;;;5095414;28;19942;-76
2021/12/29 00:03:35;;;;;;;;;;;9.30;99.90;;;;;;5098750;28;19970;-76
2021/12/29 00:06:00;;;;;;;;;;;9.30;99.90;;;;;;5096689;28;19912;-76
2021/12/29 00:08:26;;;;;;;;;;;9.30;99.90;;;;;;5096634;28;19912;-76
2021/12/29 00:10:55;;;;;;;;;;;9.30;99.90;;;;;;5096525;28;20431;-76
2021/12/29 00:13:22;;;;;;;;;;;9.30;99.90;;;;;;5096398;28;20098;-76
2021/12/29 00:15:47;;;;;;;;;;;9.30;99.90;;;;;;5096151;28;19908;-76
2021/12/29 00:18:13;;;;;;;;;;;9.30;99.90;;;;;;5094717;28;20037;-76
2021/12/29 00:20:38;;;;;;;;;;;9.30;99.90;;;;;;5077859;28;19908;-75
2021/12/29 00:23:05;;;;;;;;;;;9.30;99.90;;;;;;5095865;28;20281;-76
2021/12/29 00:25:32;;;;;;;;;;;9.30;99.90;;;;;;5096210;28;19912;-75
2021/12/29 00:27:59;;;;;;;;;;;9.40;99.90;;;;;;5096222;28;20390;-75
2021/12/29 00:30:25;;;;;;;;;;;9.40;99.90;;;;;;5078611;28;19908;-75
2021/12/29 00:32:51;;;;;;;;;;;9.40;99.90;;;;;;5075449;28;20042;-75
2021/12/29 00:35:16;;;;;;;;;;;9.40;99.90;;;;;;5075265;28;19919;-75
2021/12/29 00:37:42;;;;;;;;;;;9.40;99.90;;;;;;5075021;28;19916;-76
2021/12/29 00:40:09;;;;;;;;;;;9.40;99.90;;;;;;5075689;28;19908;-76
2021/12/29 00:42:35;;;;;;;;;;;9.40;99.90;;;;;;5075537;28;19948;-76
2021/12/29 00:45:00;;;;;;;;;;;9.40;99.90;;;;;;5075444;28;19985;-76
2021/12/29 00:47:29;;;;;;;;;;;9.50;99.90;;;;;;5075489;28;19913;-76
2021/12/29 00:49:55;;;;;;;;;;;9.50;99.90;;;;;;5075235;28;19954;-75
2021/12/29 00:52:21;;;;;;;;;;;9.40;99.90;;;;;;5075252;28;19909;-76
2021/12/29 00:54:47;;;;;;;;;;;9.40;99.90;;;;;;5075250;28;19988;-75
2021/12/29 00:57:12;;;;;;;;;;;9.40;99.90;;;;;;5075142;28;19923;-75
2021/12/29 00:59:38;;;;;;;;;;;9.40;99.90;;;;;;5075329;28;19908;-76
2021/12/29 01:02:04;;;;;;;;;;;9.40;99.90;;;;;;5081898;28;19908;-75
2021/12/29 01:04:30;;;;;;;;;;;9.40;99.90;;;;;;5095560;28;19919;-76
2021/12/29 01:06:55;;;;;;;;;;;9.40;99.90;;;;;;5095463;28;19908;-76
2021/12/29 01:09:21;;;;;;;;;;;9.40;99.90;;;;;;5095426;28;19907;-75
2021/12/29 01:11:46;;;;;;;;;;;9.40;99.90;;;;;;5095315;28;19908;-75
2021/12/29 01:14:12;;;;;;;;;;;9.40;99.90;;;;;;5095181;28;20769;-75
2021/12/29 01:16:38;;;;;;;;;;;9.40;99.90;;;;;;5095336;28;19937;-75
2021/12/29 01:19:04;;;;;;;;;;;9.40;99.90;;;;;;5095019;28;19908;-75
2021/12/29 01:21:31;;;;;;;;;;;9.40;99.90;;;;;;5094767;28;19934;-75
2021/12/29 01:23:57;;;;;;;;;;;9.40;99.90;;;;;;5094897;28;19947;-76
2021/12/29 01:26:23;;;;;;;;;;;9.40;99.90;;;;;;5094749;28;20472;-76
2021/12/29 01:28:48;;;;;;;;;;;9.40;99.90;;;;;;5094235;28;19916;-75
2021/12/29 01:31:14;;;;;;;;;;;9.40;99.90;;;;;;5094565;28;19908;-76
2021/12/29 01:33:40;;;;;;;;;;;9.40;99.90;;;;;;5094696;28;20006;-76
2021/12/29 01:36:06;;;;;;;;;;;9.40;99.90;;;;;;5094850;28;19907;-76
2021/12/29 01:38:31;;;;;;;;;;;9.40;99.90;;;;;;5094742;28;19908;-76
2021/12/29 01:40:57;;;;;;;;;;;9.40;99.90;;;;;;5094834;28;19949;-75
2021/12/29 01:43:22;;;;;;;;;;;9.40;99.90;;;;;;5094483;28;19912;-75
2021/12/29 01:45:48;;;;;;;;;;;9.40;99.90;;;;;;5094577;28;19912;-76
2021/12/29 01:48:16;;;;;;;;;;;9.40;99.90;;;;;;5094463;28;20373;-76
2021/12/29 01:50:44;;;;;;;;;;;9.40;99.90;;;;;;5094253;28;19908;-75
2021/12/29 01:53:13;;;;;;;;;;;9.40;99.90;;;;;;5094287;28;19908;-75
2021/12/29 01:55:39;;;;;;;;;;;9.40;99.90;;;;;;5094505;28;19908;-76
2021/12/29 01:58:05;;;;;;;;;;;9.40;99.90;;;;;;5094404;28;20015;-76
2021/12/29 02:00:32;;;;;;;;;;;9.50;99.90;;;;;;5094319;28;19961;-76
2021/12/29 02:02:58;;;;;;;;;;;9.50;99.90;;;;;;5094200;28;19908;-75
2021/12/29 02:05:24;;;;;;;;;;;9.50;99.90;;;;;;5094044;28;19916;-75
2021/12/29 02:07:50;;;;;;;;;;;9.50;99.90;;;;;;5093924;28;19912;-75
2021/12/29 02:10:16;;;;;;;;;;;9.50;99.90;;;;;;5094115;28;19952;-75
2021/12/29 02:12:42;;;;;;;;;;;9.50;99.90;;;;;;5093988;28;19908;-75
2021/12/29 02:15:09;;;;;;;;;;;9.50;99.90;;;;;;5093766;28;19916;-75
2021/12/29 02:17:34;;;;;;;;;;;9.40;99.90;;;;;;5093983;28;19912;-75
2021/12/29 02:20:02;;;;;;;;;;;9.50;99.90;;;;;;5094129;28;20324;-75
2021/12/29 02:22:43;;;;;;;;;;;9.50;99.90;;;;;;5094097;28;19908;-75
2021/12/29 02:27:42;;;;;;;;;;;9.50;99.90;;;;;;5110063;28;20271;-76
2021/12/29 02:30:08;;;;;;;;;;;9.50;99.90;;;;;;5095235;28;19915;-75
2021/12/29 02:32:34;;;;;;;;;;;9.50;99.90;;;;;;5106614;28;19998;-76
2021/12/29 02:35:00;;;;;;;;;;;9.50;99.90;;;;;;5114046;28;19951;-76
2021/12/29 02:37:26;;;;;;;;;;;9.50;99.90;;;;;;5114238;28;19933;-76
2021/12/29 02:39:52;;;;;;;;;;;9.50;99.90;;;;;;5113411;28;19920;-75
2021/12/29 02:42:19;;;;;;;;;;;9.50;99.90;;;;;;5114024;28;19912;-76
2021/12/29 02:44:46;;;;;;;;;;;9.50;99.90;;;;;;5113534;28;19963;-75
2021/12/29 02:47:12;;;;;;;;;;;9.50;99.90;;;;;;5113983;28;20365;-75
2021/12/29 02:49:37;;;;;;;;;;;9.50;99.90;;;;;;5113875;28;19908;-76
2021/12/29 02:52:03;;;;;;;;;;;9.50;99.90;;;;;;5113840;28;19953;-76
2021/12/29 02:54:29;;;;;;;;;;;9.50;99.90;;;;;;5113823;28;19915;-76
2021/12/29 02:56:55;;;;;;;;;;;9.50;99.90;;;;;;5113748;28;19908;-76
2021/12/29 02:59:21;;;;;;;;;;;9.50;99.90;;;;;;5113672;28;19912;-76
2021/12/29 03:01:47;;;;;;;;;;;9.50;99.90;;;;;;5113824;28;19911;-75
2021/12/29 03:04:13;;;;;;;;;;;9.50;99.90;;;;;;5113461;28;20006;-75
2021/12/29 03:06:39;;;;;;;;;;;9.50;99.90;;;;;;5113276;28;20392;-75
2021/12/29 03:09:06;;;;;;;;;;;9.50;99.90;;;;;;5113635;28;19942;-76
2021/12/29 03:11:32;;;;;;;;;;;9.50;99.90;;;;;;5095535;28;20267;-76
2021/12/29 03:13:58;;;;;;;;;;;9.50;99.90;;;;;;5113772;28;19914;-76
2021/12/29 03:16:24;;;;;;;;;;;9.50;99.90;;;;;;5113295;28;20471;-76
2021/12/29 03:18:50;;;;;;;;;;;9.50;99.90;;;;;;5113350;28;20355;-76
2021/12/29 03:21:16;;;;;;;;;;;9.50;99.90;;;;;;5113396;28;19914;-76
2021/12/29 03:23:42;;;;;;;;;;;9.50;99.90;;;;;;5113423;28;19968;-75
2021/12/29 03:26:07;;;;;;;;;;;9.50;99.90;;;;;;5113559;28;20318;-75
2021/12/29 03:28:34;;;;;;;;;;;9.50;99.90;;;;;;5113586;28;20420;-76
2021/12/29 03:30:59;;;;;;;;;;;9.50;99.90;;;;;;5106580;28;19942;-76
2021/12/29 03:33:26;;;;;;;;;;;9.50;99.90;;;;;;5093091;28;19912;-76
2021/12/29 03:35:53;;;;;;;;;;;9.50;99.90;;;;;;5093155;28;19908;-76
2021/12/29 03:38:22;;;;;;;;;;;9.50;99.90;;;;;;5093197;28;20016;-76
2021/12/29 03:40:49;;;;;;;;;;;9.50;99.90;;;;;;5092837;28;19938;-75
2021/12/29 03:43:15;;;;;;;;;;;9.50;99.90;;;;;;5092789;28;19995;-76
2021/12/29 03:45:44;;;;;;;;;;;9.50;99.90;;;;;;5092842;28;19995;-75
2021/12/29 03:48:11;;;;;;;;;;;9.50;99.90;;;;;;5092766;28;19908;-76
2021/12/29 03:50:36;;;;;;;;;;;9.50;99.90;;;;;;5092475;28;20320;-75
2021/12/29 03:53:02;;;;;;;;;;;9.60;99.90;;;;;;5096113;28;19954;-76
2021/12/29 03:55:28;;;;;;;;;;;9.60;99.90;;;;;;5096798;28;20328;-76
2021/12/29 03:57:53;;;;;;;;;;;9.60;99.90;;;;;;5096690;28;19940;-76
2021/12/29 04:00:20;;;;;;;;;;;9.60;99.90;;;;;;5096714;28;19923;-75
2021/12/29 04:02:46;;;;;;;;;;;9.60;99.90;;;;;;5096559;28;20271;-76
2021/12/29 04:05:13;;;;;;;;;;;9.60;99.90;;;;;;5096472;28;19919;-76
2021/12/29 04:07:39;;;;;;;;;;;9.60;99.90;;;;;;5096607;28;19912;-76
2021/12/29 04:10:05;;;;;;;;;;;9.60;99.90;;;;;;5096452;28;19961;-76
2021/12/29 04:12:31;;;;;;;;;;;9.60;99.90;;;;;;5096338;28;19995;-76
2021/12/29 04:14:57;;;;;;;;;;;9.60;99.90;;;;;;5096087;28;20416;-76
2021/12/29 04:17:29;;;;;;;;;;;9.60;99.90;;;;;;5096066;28;19908;-76
2021/12/29 04:22:38;;;;;;;;;;;9.60;99.90;;;;;;5096357;28;20464;-76
2021/12/29 04:25:05;;;;;;;;;;;9.60;99.90;;;;;;5096104;28;19916;-75
2021/12/29 04:27:30;;;;;;;;;;;9.60;99.90;;;;;;5095858;28;19912;-75
2021/12/29 04:29:56;;;;;;;;;;;;;;;;;;5096040;28;19915;-74
2021/12/29 04:32:22;;;;;;;;;;;7.50;99.90;;;;;;5095936;28;20003;-75
2021/12/29 04:34:48;;;;;;;;;;;9.80;99.90;;;;;;5095779;28;19908;-75
2021/12/29 04:37:13;;;;;;;;;;;9.80;99.90;;;;;;5095727;28;19908;-75
2021/12/29 04:39:39;;;;;;;;;;;9.80;99.90;;;;;;5095834;28;19912;-75
2021/12/29 04:42:04;;;;;;;;;;;9.80;99.90;;;;;;5095799;28;20275;-75
2021/12/29 04:44:30;;;;;;;;;;;9.70;99.90;;;;;;5095808;28;20371;-75
2021/12/29 04:46:57;;;;;;;;;;;9.80;99.90;;;;;;5095812;28;19919;-75
2021/12/29 04:49:27;;;;;;;;;;;9.80;99.90;;;;;;5095685;28;20270;-75
2021/12/29 04:52:03;;;;;;;;;;;9.80;99.90;;;;;;5095564;28;19912;-75
2021/12/29 04:54:29;;;;;;;;;;;9.80;99.90;;;;;;5095702;28;19974;-76
2021/12/29 04:56:55;;;;;;;;;;;9.80;99.90;;;;;;5095584;28;20302;-76
2021/12/29 04:59:21;;;;;;;;;;;9.80;99.90;;;;;;5095506;28;19908;-75
2021/12/29 05:01:47;;;;;;;;;;;9.80;99.90;;;;;;5095577;28;19969;-75
2021/12/29 05:04:20;;;;;;;;;;;9.90;99.90;;;;;;5094332;28;20409;-76
2021/12/29 05:09:29;;;;;;;;;;;9.80;99.90;;;;;;5095164;28;20279;-75
2021/12/29 05:11:55;;;;;;;;;;;9.80;99.90;;;;;;5095031;28;19912;-76
2021/12/29 05:14:20;;;;;;;;;;;9.80;99.90;;;;;;5094981;28;19911;-76
2021/12/29 05:16:46;;;;;;;;;;;9.80;99.90;;;;;;5076673;28;19915;-75
2021/12/29 05:19:11;;;;;;;;;;;9.80;99.90;;;;;;5095022;28;19918;-76
2021/12/29 05:21:37;;;;;;;;;;;9.80;99.90;;;;;;5095023;28;19944;-76
2021/12/29 05:24:03;;;;;;;;;;;9.70;99.90;;;;;;5095006;28;19923;-76
2021/12/29 05:26:28;;;;;;;;;;;9.60;99.90;;;;;;5094922;28;20283;-76
2021/12/29 05:28:54;;;;;;;;;;;9.70;99.90;;;;;;5095049;28;19908;-76
2021/12/29 05:31:20;;;;;;;;;;;9.70;99.90;;;;;;5095028;28;19908;-76
2021/12/29 05:33:45;;;;;;;;;;;9.70;99.90;;;;;;5094842;28;19915;-76
2021/12/29 05:36:11;;;;;;;;;;;9.70;99.90;;;;;;5094833;28;19998;-76
2021/12/29 05:38:37;;;;;;;;;;;9.80;99.90;;;;;;5094752;28;19908;-76
2021/12/29 05:41:02;;;;;;;;;;;9.80;99.90;;;;;;5094658;28;19907;-76
2021/12/29 05:43:28;;;;;;;;;;;9.80;99.90;;;;;;5094353;28;20271;-75
2021/12/29 05:45:53;;;;;;;;;;;9.90;99.90;;;;;;5094307;28;20290;-75
2021/12/29 05:48:19;;;;;;;;;;;9.90;99.90;;;;;;5094551;28;19937;-76
2021/12/29 05:50:45;;;;;;;;;;;9.90;99.90;;;;;;5094103;28;20042;-76
2021/12/29 05:53:10;;;;;;;;;;;9.90;99.90;;;;;;5094557;28;19926;-76
2021/12/29 05:55:36;;;;;;;;;;;9.90;99.90;;;;;;5094212;28;19908;-76
2021/12/29 05:58:01;;;;;;;;;;;9.80;99.90;;;;;;5094204;28;19918;-76
2021/12/29 06:00:27;;;;;;;;;;;9.80;99.90;;;;;;5094002;28;19918;-76
2021/12/29 06:02:54;;;;;;;;;;;9.80;99.90;;;;;;5094054;28;20278;-76
2021/12/29 06:05:20;;;;;;;;;;;9.90;99.90;;;;;;5094213;28;19927;-76
2021/12/29 06:07:46;;;;;;;;;;;9.90;99.90;;;;;;5094244;28;19990;-76
2021/12/29 06:10:11;;;;;;;;;;;9.90;99.90;;;;;;5094106;28;19973;-76
2021/12/29 06:12:37;;;;;;;;;;;9.90;99.90;;;;;;5093746;28;19912;-75
2021/12/29 06:15:03;;;;;;;;;;;9.90;99.90;;;;;;5094084;28;19911;-76
2021/12/29 06:17:29;;;;;;;;;;;10.00;99.90;;;;;;5094137;28;19998;-76
2021/12/29 06:19:56;;;;;;;;;;;10.00;99.90;;;;;;5093987;28;19955;-76
2021/12/29 06:22:22;;;;;;;;;;;10.00;99.90;;;;;;5094175;28;19908;-75
2021/12/29 06:24:52;;;;;;;;;;;10.00;99.90;;;;;;5092368;28;19928;-75
2021/12/29 06:27:20;;;;;;;;;;;10.10;99.90;;;;;;5093699;28;20392;-75
2021/12/29 06:29:46;;;;;;;;;;;10.10;99.90;;;;;;5093747;28;19912;-75
2021/12/29 06:32:12;;;;;;;;;;;10.10;99.90;;;;;;5092034;28;20747;-76
2021/12/29 06:34:37;;;;;;;;;;;10.20;99.90;;;;;;5093542;28;20362;-76
2021/12/29 06:37:08;;;;;;;;;;;10.20;99.90;;;;;;5092724;28;19948;-76
2021/12/29 06:39:35;;;;;;;;;;;10.20;99.90;;;;;;5093466;28;20321;-76
2021/12/29 06:42:01;;;;;;;;;;;10.30;99.90;;;;;;5093730;28;20317;-76
2021/12/29 06:44:27;;;;;;;;;;;10.30;99.90;;;;;;5075382;28;19916;-76
2021/12/29 06:46:52;;;;;;;;;;;10.40;99.90;;;;;;5093450;28;20298;-76
2021/12/29 06:49:18;;;;;;;;;;;10.50;99.90;;;;;;5093542;28;20559;-76
2021/12/29 06:51:43;;;;;;;;;;;10.60;99.90;;;;;;5093404;28;19919;-76
2021/12/29 06:54:09;;;;;;;;;;;10.60;99.90;;;;;;5093440;28;19915;-75
2021/12/29 06:56:35;;;;;;;;;;;10.70;99.90;;;;;;5093614;28;19908;-75
2021/12/29 06:59:00;;;;;;;;;;;10.70;99.90;;;;;;5093445;28;19911;-76
2021/12/29 07:01:26;;;;;;;;;;;10.70;99.90;;;;;;5093401;28;19933;-75
2021/12/29 07:03:51;;;;;;;;;;;10.60;99.90;;;;;;5093337;28;19952;-75
2021/12/29 07:06:17;;;;;;;;;;;10.70;99.90;;;;;;5093460;28;20363;-75
2021/12/29 07:08:43;;;;;;;;;;;10.60;99.90;;;;;;5093329;28;19916;-75
2021/12/29 07:11:08;;;;;;;;;;;10.70;99.90;;;;;;5093180;28;19924;-75
2021/12/29 07:13:34;;;;;;;;;;;10.70;99.90;;;;;;5093109;28;20042;-75
2021/12/29 07:15:59;;;;;;;;;;;10.70;99.90;;;;;;5093035;28;19954;-75
2021/12/29 07:18:25;;;;;;;;;;;10.70;99.90;;;;;;5092959;28;19935;-76
2021/12/29 07:20:51;;;;;;;;;;;10.70;99.90;;;;;;5093391;28;19908;-75
2021/12/29 07:23:16;;;;;;;;;;;10.70;99.90;;;;;;5093159;28;19997;-75
2021/12/29 07:25:42;;;;;;;;;;;10.70;99.90;;;;;;5093062;28;20003;-76
2021/12/29 07:28:07;;;;;;;;;;;10.60;99.90;;;;;;5096775;28;19914;-75
2021/12/29 07:30:33;;;;;;;;;;;10.60;99.90;;;;;;5096983;28;20343;-75
2021/12/29 07:32:59;;;;;;;;;;;10.60;99.90;;;;;;5096909;28;19953;-76
2021/12/29 07:35:24;;;;;;;;;;;10.60;99.90;;;;;;5096721;28;19915;-76
2021/12/29 07:37:50;;;;;;;;;;;10.60;99.90;;;;;;5096763;28;20015;-75
2021/12/29 07:40:16;;;;;;;;;;;10.60;99.90;;;;;;5096945;28;19915;-75
2021/12/29 07:42:43;;;;;;;;;;;10.70;99.90;;;;;;5096896;28;19947;-76
2021/12/29 07:45:09;;;;;;;;;;;10.60;99.90;;;;;;5078674;28;20370;-76
2021/12/29 07:47:35;;;;;;;;;;;10.60;99.90;;;;;;5097086;28;19964;-75
2021/12/29 07:50:02;;;;;;;;;;;10.60;99.90;;;;;;5096856;28;19908;-75
2021/12/29 07:52:28;;;;;;;;;;;10.60;99.90;;;;;;5096890;28;19908;-75
2021/12/29 07:54:54;;;;;;;;;;;10.60;99.90;;;;;;5096648;28;19911;-76
2021/12/29 07:57:19;;;;;;;;;;;10.60;99.90;;;;;;5096522;28;19908;-76
2021/12/29 07:59:45;;;;;;;;;;;10.60;99.90;;;;;;5096335;28;19912;-76
2021/12/29 08:02:14;;;;;;;;;;;10.60;99.90;;;;;;5096420;28;19912;-76
2021/12/29 08:04:40;;;;;;;;;;;10.60;99.90;;;;;;5096233;28;19916;-76
2021/12/29 08:07:05;;;;;;;;;;;10.60;99.90;;;;;;5096340;28;19919;-76
2021/12/29 08:09:31;;;;;;;;;;;10.60;99.90;;;;;;5096511;28;19943;-76
2021/12/29 08:11:57;;;;;;;;;;;10.70;99.90;;;;;;5096427;28;20355;-75
2021/12/29 08:14:22;;;;;;;;;;;10.70;99.90;;;;;;5096454;28;19912;-75
2021/12/29 08:16:48;;;;;;;;;;;10.70;99.90;;;;;;5096462;28;19954;-75
2021/12/29 08:19:15;;;;;;;;;;;10.80;99.90;;;;;;5096227;28;19915;-75
2021/12/29 08:21:41;;;;;;;;;;;10.80;99.90;;;;;;5096316;28;19986;-75
2021/12/29 08:24:07;;;;;;;;;;;10.80;99.90;;;;;;5096163;28;20015;-75
2021/12/29 08:26:33;;;;;;;;;;;10.80;99.90;;;;;;5095864;28;19952;-75
2021/12/29 08:28:59;;;;;;;;;;;10.80;99.90;;;;;;5094450;28;19908;-75
2021/12/29 08:31:25;;;;;;;;;;;10.80;99.90;;;;;;5073988;28;19919;-75
2021/12/29 08:33:51;;;;;;;;;;;11.00;99.90;;;;;;5073593;28;20356;-75
2021/12/29 08:36:17;;;;;;;;;;;11.00;99.90;;;;;;5074615;28;19919;-75
2021/12/29 08:38:42;;;;;;;;;;;11.00;99.90;;;;;;5074271;28;19915;-75
2021/12/29 08:41:10;;;;;;;;;;;11.10;99.90;;;;;;5075751;28;20321;-75
2021/12/29 08:43:35;;;;;;;;;;;11.10;99.90;;;;;;5075648;28;20022;-75
2021/12/29 08:46:01;;;;;;;;;;;11.10;99.90;;;;;;5075425;28;20364;-75
2021/12/29 08:48:27;;;;;;;;;;;11.10;99.90;;;;;;5075161;28;19908;-75
2021/12/29 08:50:54;;;;;;;;;;;11.20;99.90;;;;;;5075177;28;19912;-76
2021/12/29 08:53:19;;;;;;;;;;;11.20;99.90;;;;;;5075071;28;20339;-76
2021/12/29 08:55:49;;;;;;;;;;;11.10;99.90;;;;;;5075347;28;19955;-75
2021/12/29 08:58:15;;;;;;;;;;;11.10;99.90;;;;;;5075334;28;19962;-75
2021/12/29 09:00:42;;;;;;;;;;;11.00;99.90;;;;;;5075397;28;19923;-75
2021/12/29 09:03:07;;;;;;;;;;;11.00;99.90;;;;;;5075213;28;19931;-76
2021/12/29 09:05:33;;;;;;;;;;;11.10;99.90;;;;;;5074792;28;19920;-75
2021/12/29 09:07:59;;;;;;;;;;;11.00;99.90;;;;;;5077554;28;20003;-76
2021/12/29 09:10:24;;;;;;;;;;;11.00;99.90;;;;;;5084337;28;19947;-76
2021/12/29 09:12:51;;;;;;;;;;;11.00;99.90;;;;;;5095370;28;19908;-76
2021/12/29 09:15:18;;;;;;;;;;;11.00;99.90;;;;;;5095050;28;19938;-76
2021/12/29 09:17:44;;;;;;;;;;;11.00;99.90;;;;;;5094833;28;20291;-75
2021/12/29 09:20:16;;;;;;;;;;;11.10;99.90;;;;;;5110826;28;19914;-76
2021/12/29 09:22:42;;;;;;;;;;;11.10;99.90;;;;;;5095003;28;19908;-76
2021/12/29 09:25:08;;;;;;;;;;;11.00;99.90;;;;;;5094387;28;20504;-76
2021/12/29 09:27:34;;;;;;;;;;;11.00;99.90;;;;;;5094744;28;19919;-76
2021/12/29 09:30:00;;;;;;;;;;;11.00;99.90;;;;;;5094621;28;20282;-76
2021/12/29 09:32:30;;;;;;;;;;;11.00;99.90;;;;;;5094738;28;19912;-76
2021/12/29 09:34:59;;;;;;;;;;;11.00;99.90;;;;;;5094904;28;19973;-76
2021/12/29 09:37:26;;;;;;;;;;;11.00;99.90;;;;;;5094961;28;20375;-76
2021/12/29 09:39:51;;;;;;;;;;;10.90;99.90;;;;;;5094674;28;20026;-76
2021/12/29 09:42:17;;;;;;;;;;;10.90;99.90;;;;;;5094429;28;20367;-76
2021/12/29 09:44:43;;;;;;;;;;;10.80;99.90;;;;;;5094269;28;19916;-76
2021/12/29 09:47:10;;;;;;;;;;;10.80;99.90;;;;;;5094588;28;19908;-76
2021/12/29 09:49:37;;;;;;;;;;;10.80;99.90;;;;;;5094052;28;19908;-75
2021/12/29 09:52:04;;;;;;;;;;;10.80;99.90;;;;;;5094393;28;19935;-76
2021/12/29 09:54:30;;;;;;;;;;;10.90;99.90;;;;;;5094603;28;19912;-76
2021/12/29 09:56:56;;;;;;;;;;;10.90;99.90;;;;;;5094572;28;19908;-76
2021/12/29 09:59:22;;;;;;;;;;;10.90;99.90;;;;;;5094304;28;19919;-76
2021/12/29 10:01:48;;;;;;;;;;;10.90;99.90;;;;;;5094314;28;19908;-76
2021/12/29 10:04:14;;;;;;;;;;;10.90;99.90;;;;;;5094226;28;19923;-75
2021/12/29 10:06:40;;;;;;;;;;;10.90;99.90;;;;;;5094313;28;19969;-75
2021/12/29 10:09:12;;;;;;;;;;;10.90;99.90;;;;;;5094109;28;20290;-75
2021/12/29 10:11:38;;;;;;;;;;;11.00;99.90;;;;;;5094260;28;19908;-75
2021/12/29 10:14:11;;;;;;;;;;;11.00;99.90;;;;;;5094205;28;20007;-78
2021/12/29 10:16:37;;;;;;;;;;;11.10;99.90;;;;;;5093843;28;19993;-76
2021/12/29 10:19:03;;;;;;;;;;;11.10;99.90;;;;;;5094083;28;19939;-75
2021/12/29 10:21:29;;;;;;;;;;;11.10;99.90;;;;;;5093887;28;19956;-75
2021/12/29 10:23:55;;;;;;;;;;;11.10;99.90;;;;;;5093684;28;19912;-75
2021/12/29 10:26:22;;;;;;;;;;;11.10;99.90;;;;;;5093567;28;19922;-75
2021/12/29 10:29:00;;;;;;;;;;;11.10;99.90;;;;;;5093731;28;20271;-75
2021/12/29 10:31:27;;;;;;;;;;;11.10;99.90;;;;;;5093901;28;19957;-75
2021/12/29 10:33:53;;;;;;;;;;;11.10;99.90;;;;;;5093776;28;19969;-75
2021/12/29 10:36:23;;;;;;;;;;;11.10;99.90;;;;;;5093839;28;19916;-75
2021/12/29 10:38:56;;;;;;;;;;;11.10;99.90;;;;;;5093613;28;19908;-75
2021/12/29 10:41:21;;;;;;;;;;;11.10;99.90;;;;;;5093769;28;19918;-75
2021/12/29 10:44:13;;;;;;;;;;;11.10;99.90;;;;;;5093587;28;20007;-75
2021/12/29 10:46:39;;;;;;;;;;;11.10;99.90;;;;;;5090203;28;19996;-75
2021/12/29 10:49:07;;;;;;;;;;;11.00;99.90;;;;;;5093577;28;20347;-75
2021/12/29 10:51:34;;;;;;;;;;;11.00;99.90;;;;;;5093577;28;20351;-75
2021/12/29 10:54:07;;;;;;;;;;;11.10;99.90;;;;;;5088798;28;19904;-79
2021/12/29 10:56:33;;;;;;;;;;;11.10;99.90;;;;;;5077023;28;19912;-71
2021/12/29 10:58:59;;;;;;;;;;;11.10;99.90;;;;;;5090379;28;19994;-73
2021/12/29 11:01:25;;;;;;;;;;;11.10;99.90;;;;;;5088630;28;20007;-73
2021/12/29 11:03:52;;;;;;;;;;;11.10;99.90;;;;;;5072413;28;20632;-73
2021/12/29 11:06:19;;;;;;;;;;;11.10;99.90;;;;;;5090070;28;19919;-72
2021/12/29 11:08:47;;;;;;;;;;;11.20;99.90;;;;;;5071109;28;19915;-73
2021/12/29 11:11:13;;;;;;;;;;;;;;;;;;5091560;28;19993;-72
2021/12/29 11:13:38;;;;;;;;;;;11.30;99.90;;;;;;5090240;28;19908;-73
2021/12/29 11:16:05;;;;;;;;;;;11.30;99.90;;;;;;5091105;28;20781;-72
2021/12/29 11:18:44;;;;;;;;;;;11.30;99.90;;;;;;5089570;28;19970;-74
2021/12/29 11:21:10;;;;;;;;;;;11.40;99.90;;;;;;5073751;28;19915;-74
2021/12/29 11:23:41;;;;;;;;;;;11.50;99.90;;;;;;5073761;28;19914;-73
2021/12/29 11:26:11;;;;;;;;;;;;;;;;;;5089140;28;19991;-72
2021/12/29 11:28:37;;;;;;;;;;;;;;;;;;5095208;28;19915;-74
2021/12/29 11:31:03;;;;;;;;;;;;;;;;;;5094333;28;19922;-74
2021/12/29 11:33:29;;;;;;;;;;;;;;;;;;5096093;28;20022;-74
2021/12/29 11:35:56;;;;;;;;;;;;;;;;;;5100460;28;19915;-74
2021/12/29 11:38:22;;;;;;;;;;;11.70;99.90;;;;;;5099075;28;19908;-75
2021/12/29 11:40:50;;;;;;;;;;;11.90;99.90;;;;;;5092710;28;19912;-73
2021/12/29 11:43:17;;;;;;;;;;;11.90;99.90;;;;;;5091417;28;19961;-73
2021/12/29 11:45:43;;;;;;;;;;;11.80;99.90;;;;;;5090027;28;19916;-74
2021/12/29 11:48:10;;;;;;;;;;;11.80;99.90;;;;;;5089307;28;19932;-73
2021/12/29 11:50:37;;;;;;;;;;;11.90;99.90;;;;;;5097249;28;20343;-74
2021/12/29 11:53:17;;;;;;;;;;;12.00;99.90;;;;;;5099111;28;19912;-74
2021/12/29 11:55:44;;;;;;;;;;;12.00;99.90;;;;;;5098486;28;19987;-74
2021/12/29 11:58:25;;;;;;;;;;;12.10;99.90;;;;;;5099820;28;19908;-72
2021/12/29 12:01:07;;;;;;;;;;;12.10;99.90;;;;;;5106921;28;19990;-75
2021/12/29 12:03:51;;;;;;;;;;;12.10;99.90;;;;;;5101658;28;19916;-73
2021/12/29 12:06:25;;;;;;;;;;;12.20;99.90;;;;;;5083684;28;20008;-74
2021/12/29 12:09:13;;;;;;;;;;;12.30;99.90;;;;;;5092232;28;19915;-75
2021/12/29 12:11:48;;;;;;;;;;;12.40;99.90;;;;;;5094004;28;19941;-75
2021/12/29 12:14:24;;;;;;;;;;;12.50;99.90;;;;;;5099582;28;19907;-76
2021/12/29 12:16:57;;;;;;;;;;;12.50;99.90;;;;;;5102419;28;19915;-74
2021/12/29 12:19:24;;;;;;;;;;;12.50;99.90;;;;;;5103508;28;19938;-75
2021/12/29 12:22:10;;;;;;;;;;;12.60;99.90;;;;;;5094738;28;20252;-74
2021/12/29 12:24:41;;;;;;;;;;;12.70;99.90;;;;;;5091520;28;20446;-73
2021/12/29 12:27:15;;;;;;;;;;;12.90;99.90;;;;;;5095663;28;19948;-73
2021/12/29 12:29:42;;;;;;;;;;;12.90;99.90;;;;;;5098436;28;19908;-73
2021/12/29 12:32:17;;;;;;;;;;;12.90;99.90;;;;;;5098658;28;19908;-72
2021/12/29 12:34:48;;;;;;;;;;;13.10;99.90;;;;;;5095444;28;19911;-73
2021/12/29 12:37:18;;;;;;;;;;;13.30;99.90;;;;;;5095270;28;20359;-74
2021/12/29 12:39:54;;;;;;;;;;;13.20;99.90;;;;;;5106937;28;19914;-73
2021/12/29 12:42:20;;;;;;;;;;;13.30;99.90;;;;;;5110739;28;19911;-73
2021/12/29 12:44:46;;;;;;;;;;;13.30;99.90;;;;;;5116304;28;19923;-73
2021/12/29 12:47:13;;;;;;;;;;;13.30;99.90;;;;;;5102107;28;19912;-73
2021/12/29 12:49:43;;;;;;;;;;;13.50;99.90;;;;;;5100359;28;19908;-75
2021/12/29 12:52:10;;;;;;;;;;;13.60;99.90;;;;;;5095736;28;19908;-73
2021/12/29 12:54:47;;;;;;;;;;;13.50;99.90;;;;;;5105096;28;19908;-74
2021/12/29 12:57:14;;;;;;;;;;;13.50;99.90;;;;;;5090838;28;19917;-74
2021/12/29 12:59:44;;;;;;;;;;;13.50;99.90;;;;;;5093319;28;20045;-73
2021/12/29 13:02:17;;;;;;;;;;;13.70;99.90;;;;;;5094966;28;19915;-72
2021/12/29 13:04:43;;;;;;;;;;;13.70;99.90;;;;;;5097595;28;19946;-72
2021/12/29 13:07:09;;;;;;;;;;;13.80;99.90;;;;;;5094969;28;19985;-73
2021/12/29 13:09:44;;;;;;;;;;;13.80;99.90;;;;;;5094535;28;20007;-72
2021/12/29 13:12:10;;;;;;;;;;;13.70;99.90;;;;;;5095175;28;20562;-74
2021/12/29 13:14:36;;;;;;;;;;;13.70;99.90;;;;;;5094990;28;19919;-73
2021/12/29 13:17:01;;;;;;;;;;;13.70;99.90;;;;;;5095291;28;19915;-73
2021/12/29 13:19:27;;;;;;;;;;;13.70;99.90;;;;;;5094920;28;20380;-74
2021/12/29 13:21:52;;;;;;;;;;;13.70;99.90;;;;;;5095085;28;20362;-73
2021/12/29 13:24:18;;;;;;;;;;;13.70;99.90;;;;;;5094273;28;19949;-72
2021/12/29 13:26:45;;;;;;;;;;;13.80;99.90;;;;;;5100695;28;20355;-73
2021/12/29 13:29:15;;;;;;;;;;;13.60;99.90;;;;;;5107665;28;19915;-72
2021/12/29 13:31:41;;;;;;;;;;;13.70;99.90;;;;;;5113454;28;19994;-73
2021/12/29 13:34:07;;;;;;;;;;;13.70;99.90;;;;;;5104368;28;20006;-74
2021/12/29 13:36:33;;;;;;;;;;;13.90;99.90;;;;;;5092379;28;19908;-73
2021/12/29 13:38:58;;;;;;;;;;;13.90;99.90;;;;;;5094566;28;20397;-75
2021/12/29 13:41:27;;;;;;;;;;;13.80;99.90;;;;;;5108169;28;19991;-74
2021/12/29 13:43:54;;;;;;;;;;;13.90;99.90;;;;;;5092677;28;20279;-73
2021/12/29 13:46:24;;;;;;;;;;;14.00;99.90;;;;;;5112517;28;19918;-73
2021/12/29 13:48:51;;;;;;;;;;;14.00;99.90;;;;;;5111081;28;19907;-73
2021/12/29 13:51:19;;;;;;;;;;;14.00;99.90;;;;;;5104499;28;19912;-73
2021/12/29 13:53:46;;;;;;;;;;;14.20;99.90;;;;;;5099360;28;19908;-74
2021/12/29 13:56:13;;;;;;;;;;;14.30;99.90;;;;;;5107989;28;20379;-73
2021/12/29 13:58:40;;;;;;;;;;;14.20;99.90;;;;;;5093824;28;19908;-75
2021/12/29 14:01:06;;;;;;;;;;;14.20;99.90;;;;;;5094223;28;19912;-75
2021/12/29 14:03:32;;;;;;;;;;;14.10;99.90;;;;;;5092441;28;19970;-74
2021/12/29 14:06:02;;;;;;;;;;;14.20;99.90;;;;;;5100205;28;19922;-74
2021/12/29 14:08:28;;;;;;;;;;;14.10;99.90;;;;;;5113771;28;20052;-74
2021/12/29 14:10:53;;;;;;;;;;;14.20;99.90;;;;;;5100407;28;19951;-73
2021/12/29 14:13:20;;;;;;;;;;;14.30;99.90;;;;;;5099742;28;19923;-73
2021/12/29 14:15:48;;;;;;;;;;;14.30;99.90;;;;;;5101084;28;19908;-73
2021/12/29 14:18:17;;;;;;;;;;;14.40;99.90;;;;;;5102220;28;19908;-75
2021/12/29 14:20:42;;;;;;;;;;;14.20;99.90;;;;;;5099272;28;20711;-73
2021/12/29 14:23:09;;;;;;;;;;;14.30;99.90;;;;;;5105229;28;19935;-74
2021/12/29 14:25:35;;;;;;;;;;;14.20;99.90;;;;;;5113677;28;19923;-73
2021/12/29 14:28:01;;;;;;;;;;;14.20;99.90;;;;;;5112259;28;19908;-74
2021/12/29 14:30:27;;;;;;;;;;;14.30;99.90;;;;;;5107444;28;19908;-73
2021/12/29 14:33:03;;;;;;;;;;;14.20;99.90;;;;;;5091493;28;19940;-71